Time;durP1;ratioP1;P1;durP2;ratioP2;P2;SDS_P1;SDS_P2;PMS_P1;PMS_P2;Temp;Humidity;BMP_temperature;BMP_pressure;BME280_temperature;BME280_humidity;BME280_pressure;Samples;Min_cycle;Max_cycle;Signal;HPM_P1;HPM_P2
2024/01/28 00:00:35;;;;;;;47.17;14.10;;;25.80;36.90;;;;;;5070760;28;20208;-72
2024/01/28 00:03:02;;;;;;;45.17;14.10;;;25.80;36.80;;;;;;5068706;28;20210;-70
2024/01/28 00:05:31;;;;;;;43.70;14.47;;;25.80;36.80;;;;;;5069311;28;20234;-71
2024/01/28 00:07:58;;;;;;;43.40;15.77;;;25.80;36.80;;;;;;5078408;28;20295;-70
2024/01/28 00:10:25;;;;;;;44.97;14.53;;;25.80;36.80;;;;;;5084211;28;20205;-71
2024/01/28 00:12:52;;;;;;;57.27;14.23;;;25.80;36.80;;;;;;5087949;28;20282;-73
2024/01/28 00:15:19;;;;;;;51.90;14.80;;;25.90;36.80;;;;;;5069132;28;20220;-70
2024/01/28 00:17:46;;;;;;;37.80;13.83;;;25.90;36.90;;;;;;5068883;28;20314;-71
2024/01/28 00:20:13;;;;;;;49.50;15.07;;;25.90;36.80;;;;;;5069519;28;20257;-70
2024/01/28 00:22:41;;;;;;;33.67;14.20;;;25.90;36.80;;;;;;5073812;28;20206;-70
2024/01/28 00:25:09;;;;;;;41.67;13.73;;;25.90;36.80;;;;;;5088870;28;20274;-70
2024/01/28 00:27:36;;;;;;;43.33;14.97;;;25.90;36.70;;;;;;5083655;28;20310;-74
2024/01/28 00:30:04;;;;;;;56.87;14.63;;;25.90;36.80;;;;;;5069949;28;20210;-71
2024/01/28 00:32:31;;;;;;;43.23;14.00;;;25.90;36.70;;;;;;5069526;28;20242;-71
2024/01/28 00:34:58;;;;;;;46.67;14.37;;;26.00;36.80;;;;;;5069568;28;20203;-70
2024/01/28 00:37:24;;;;;;;73.80;15.90;;;25.90;36.70;;;;;;5086096;28;20282;-71
2024/01/28 00:39:53;;;;;;;47.20;14.40;;;25.90;36.70;;;;;;5088061;28;20286;-70
2024/01/28 00:42:20;;;;;;;46.13;13.70;;;26.00;36.80;;;;;;5082330;28;20291;-75
2024/01/28 00:44:47;;;;;;;38.60;13.23;;;26.00;37.40;;;;;;5070169;28;20203;-71
2024/01/28 00:47:15;;;;;;;55.70;15.97;;;26.00;36.80;;;;;;5070355;28;20223;-71
2024/01/28 00:49:42;;;;;;;52.13;14.47;;;26.00;36.70;;;;;;5069719;28;20239;-70
2024/01/28 00:52:09;;;;;;;74.67;15.37;;;26.00;36.80;;;;;;5081624;28;20286;-74
2024/01/28 00:54:37;;;;;;;46.57;13.93;;;26.00;37.30;;;;;;5077938;28;20230;-71
2024/01/28 00:57:06;;;;;;;48.00;14.37;;;26.00;36.80;;;;;;5085282;28;20235;-70
2024/01/28 00:59:33;;;;;;;51.47;13.57;;;26.00;36.70;;;;;;5081443;28;20687;-70
2024/01/28 01:02:00;;;;;;;47.83;13.77;;;26.00;36.70;;;;;;5080361;28;20211;-70
2024/01/28 01:04:27;;;;;;;64.07;14.80;;;26.00;36.70;;;;;;5069509;28;20218;-72
2024/01/28 01:06:54;;;;;;;45.87;14.97;;;26.10;36.80;;;;;;5068790;28;20235;-71
2024/01/28 01:09:21;;;;;;;47.03;13.77;;;26.00;36.70;;;;;;5068812;28;20209;-71
2024/01/28 01:11:48;;;;;;;46.37;13.70;;;26.10;36.70;;;;;;5082019;28;20248;-70
2024/01/28 01:14:16;;;;;;;48.50;13.60;;;26.10;36.80;;;;;;5089110;28;20202;-76
2024/01/28 01:16:43;;;;;;;54.07;14.47;;;26.10;37.40;;;;;;5083051;28;20230;-75
2024/01/28 01:19:10;;;;;;;46.23;12.73;;;26.10;36.80;;;;;;5069460;28;20198;-71
2024/01/28 01:21:37;;;;;;;57.67;13.97;;;26.10;36.70;;;;;;5087781;28;20277;-72
2024/01/28 01:24:04;;;;;;;72.20;15.40;;;26.10;36.70;;;;;;5080300;28;20246;-71
2024/01/28 01:26:31;;;;;;;53.83;14.43;;;26.10;36.70;;;;;;5083964;28;20555;-70
2024/01/28 01:28:58;;;;;;;52.40;13.37;;;26.10;36.70;;;;;;5086693;28;20199;-71
2024/01/28 01:31:26;;;;;;;67.67;15.27;;;26.10;37.30;;;;;;5082723;28;20294;-72
2024/01/28 01:33:53;;;;;;;55.70;13.30;;;26.10;36.70;;;;;;5073410;28;20315;-71
2024/01/28 01:36:20;;;;;;;52.03;13.83;;;26.10;36.70;;;;;;5075654;28;20196;-71
2024/01/28 01:38:47;;;;;;;75.10;14.97;;;26.10;36.70;;;;;;5073089;28;20579;-71
2024/01/28 01:41:15;;;;;;;58.00;14.73;;;26.10;36.70;;;;;;5085001;28;20199;-72
2024/01/28 01:43:42;;;;;;;60.73;14.57;;;26.10;36.70;;;;;;5084357;28;20708;-71
2024/01/28 01:46:11;;;;;;;70.30;15.30;;;26.10;36.70;;;;;;5068148;28;20688;-70
2024/01/28 01:48:39;;;;;;;60.13;15.27;;;26.10;36.70;;;;;;5077164;28;20210;-74
2024/01/28 01:51:07;;;;;;;42.00;12.70;;;26.20;36.70;;;;;;5088742;28;20325;-71
2024/01/28 01:53:35;;;;;;;51.03;14.63;;;26.20;36.70;;;;;;5074657;28;20245;-70
2024/01/28 01:56:02;;;;;;;52.17;13.47;;;26.20;36.70;;;;;;5068550;28;20210;-71
2024/01/28 01:58:30;;;;;;;44.60;12.50;;;26.20;36.70;;;;;;5068093;28;20196;-72
2024/01/28 02:00:57;;;;;;;49.93;13.27;;;26.20;36.70;;;;;;5068320;28;20287;-73
2024/01/28 02:03:26;;;;;;;50.13;14.23;;;26.20;36.70;;;;;;5086234;28;20206;-72
2024/01/28 02:05:55;;;;;;;49.53;13.30;;;26.20;36.70;;;;;;5073096;28;20735;-71
2024/01/28 02:08:22;;;;;;;46.80;13.43;;;26.20;36.70;;;;;;5067497;28;20247;-71
2024/01/28 02:10:49;;;;;;;53.27;13.97;;;26.20;36.70;;;;;;5067845;28;20799;-75
2024/01/28 02:13:17;;;;;;;42.00;13.13;;;26.20;36.70;;;;;;5072908;28;20719;-73
2024/01/28 02:15:44;;;;;;;57.70;14.47;;;26.20;36.70;;;;;;5067753;28;20805;-71
2024/01/28 02:18:11;;;;;;;43.00;13.20;;;26.20;36.70;;;;;;5082092;28;20278;-70
2024/01/28 02:20:38;;;;;;;53.70;12.47;;;26.30;36.80;;;;;;5087595;28;20282;-69
2024/01/28 02:23:06;;;;;;;45.20;12.90;;;26.30;36.80;;;;;;5082167;28;20313;-73
2024/01/28 02:25:34;;;;;;;90.00;16.27;;;26.30;36.80;;;;;;5067123;28;20576;-70
2024/01/28 02:28:01;;;;;;;53.67;13.43;;;26.30;36.80;;;;;;5066469;28;20235;-70
2024/01/28 02:30:28;;;;;;;47.17;13.57;;;26.30;36.80;;;;;;5066726;28;20294;-74
2024/01/28 02:32:55;;;;;;;51.93;13.93;;;26.30;36.80;;;;;;5066817;28;20652;-70
2024/01/28 02:35:22;;;;;;;50.47;13.67;;;26.30;36.80;;;;;;5073734;28;20194;-70
2024/01/28 02:37:49;;;;;;;45.00;13.80;;;26.30;36.80;;;;;;5069491;28;20211;-70
2024/01/28 02:40:16;;;;;;;46.10;13.03;;;26.30;36.80;;;;;;5067785;28;20640;-70
2024/01/28 02:42:44;;;;;;;57.33;14.43;;;26.30;36.70;;;;;;5067508;28;20279;-70
2024/01/28 02:45:11;;;;;;;47.23;13.93;;;26.30;36.70;;;;;;5076357;28;20205;-70
2024/01/28 02:47:38;;;;;;;48.47;13.17;;;26.30;36.70;;;;;;5087076;28;20333;-70
2024/01/28 02:50:06;;;;;;;69.73;14.57;;;26.40;36.80;;;;;;5084833;28;20290;-70
2024/01/28 02:52:32;;;;;;;44.83;13.00;;;26.40;36.80;;;;;;5066710;28;20845;-70
2024/01/28 02:54:59;;;;;;;51.30;14.20;;;26.40;36.70;;;;;;5068396;28;20334;-72
2024/01/28 02:57:26;;;;;;;40.97;12.77;;;26.40;36.70;;;;;;5079695;28;20547;-70
2024/01/28 02:59:55;;;;;;;42.70;12.70;;;26.40;36.70;;;;;;5068902;28;20298;-73
2024/01/28 03:02:22;;;;;;;73.83;15.03;;;26.40;36.70;;;;;;5083006;28;20190;-70
2024/01/28 03:04:49;;;;;;;48.50;13.60;;;26.40;36.70;;;;;;5082131;28;20289;-71
2024/01/28 03:07:16;;;;;;;39.77;12.57;;;26.40;36.70;;;;;;5084997;28;20359;-71
2024/01/28 03:09:43;;;;;;;47.50;13.70;;;26.40;36.70;;;;;;5086049;28;20209;-71
2024/01/28 03:12:10;;;;;;;57.23;13.40;;;26.40;36.70;;;;;;5076726;28;20288;-71
2024/01/28 03:14:37;;;;;;;39.30;12.77;;;26.40;36.70;;;;;;5066999;28;20203;-70
2024/01/28 03:17:05;;;;;;;64.77;14.60;;;26.50;36.70;;;;;;5072845;28;20751;-71
2024/01/28 03:19:32;;;;;;;43.70;12.80;;;26.50;36.70;;;;;;5088388;28;20190;-76
2024/01/28 03:21:59;;;;;;;76.17;14.77;;;26.50;36.70;;;;;;5081967;28;20297;-71
2024/01/28 03:24:26;;;;;;;48.97;13.53;;;26.50;36.70;;;;;;5091550;28;20223;-71
2024/01/28 03:26:53;;;;;;;52.67;14.17;;;26.50;36.70;;;;;;5089981;28;20227;-71
2024/01/28 03:29:20;;;;;;;50.57;13.10;;;26.40;36.60;;;;;;5076902;28;20194;-72
2024/01/28 03:31:47;;;;;;;55.90;13.40;;;26.50;36.70;;;;;;5074643;28;20243;-76
2024/01/28 03:34:15;;;;;;;40.17;13.13;;;26.50;36.70;;;;;;5084747;28;20207;-71
2024/01/28 03:36:42;;;;;;;47.93;14.10;;;26.50;36.60;;;;;;5083793;28;20232;-71
2024/01/28 03:39:09;;;;;;;52.10;13.23;;;26.50;36.60;;;;;;5070550;28;20199;-71
2024/01/28 03:41:38;;;;;;;48.43;13.30;;;26.50;36.60;;;;;;5070663;28;20290;-71
2024/01/28 03:44:05;;;;;;;54.20;13.57;;;26.50;36.70;;;;;;5070336;28;20203;-74
2024/01/28 03:46:34;;;;;;;42.40;12.70;;;26.50;36.60;;;;;;5070797;28;20206;-71
2024/01/28 03:49:01;;;;;;;55.43;13.33;;;26.50;36.60;;;;;;5070176;28;20203;-71
2024/01/28 03:51:29;;;;;;;51.50;13.23;;;26.50;36.60;;;;;;5070544;28;20217;-72
2024/01/28 03:53:57;;;;;;;56.33;13.27;;;26.50;36.60;;;;;;5070127;28;20290;-71
2024/01/28 03:56:24;;;;;;;43.27;12.47;;;26.60;36.70;;;;;;5070271;28;20235;-70
2024/01/28 03:58:51;;;;;;;43.27;12.97;;;26.60;36.70;;;;;;5070418;28;20674;-71
2024/01/28 04:01:18;;;;;;;60.77;14.17;;;26.60;36.70;;;;;;5070460;28;20203;-70
2024/01/28 04:03:45;;;;;;;103.20;16.63;;;26.60;36.70;;;;;;5069426;28;20205;-77
2024/01/28 04:06:12;;;;;;;50.07;13.70;;;26.60;36.60;;;;;;5071574;28;20199;-70
2024/01/28 04:08:40;;;;;;;57.07;13.70;;;26.60;36.70;;;;;;5087924;28;20245;-72
2024/01/28 04:11:08;;;;;;;85.77;15.67;;;26.60;36.60;;;;;;5086194;28;20209;-71
2024/01/28 04:13:34;;;;;;;36.20;11.83;;;26.60;36.70;;;;;;5069605;28;20207;-70
2024/01/28 04:16:01;;;;;;;49.10;13.80;;;26.60;36.60;;;;;;5082683;28;20223;-70
2024/01/28 04:18:28;;;;;;;43.03;13.77;;;26.60;36.60;;;;;;5083361;28;20210;-70
2024/01/28 04:20:55;;;;;;;53.60;14.23;;;26.60;36.60;;;;;;5088688;28;20303;-70
2024/01/28 04:23:22;;;;;;;49.53;13.33;;;26.60;36.60;;;;;;5076627;28;20230;-71
2024/01/28 04:25:50;;;;;;;42.80;11.97;;;26.60;36.60;;;;;;5086883;28;20203;-73
2024/01/28 04:28:17;;;;;;;44.67;12.33;;;26.60;36.60;;;;;;5087173;28;20210;-70
2024/01/28 04:30:44;;;;;;;73.80;15.47;;;26.60;36.60;;;;;;5079785;28;20332;-71
2024/01/28 04:33:12;;;;;;;49.17;12.70;;;26.70;36.70;;;;;;5077794;28;20290;-72
2024/01/28 04:35:38;;;;;;;45.33;13.60;;;26.70;36.60;;;;;;5073660;28;20239;-77
2024/01/28 04:38:05;;;;;;;42.63;13.43;;;26.70;36.70;;;;;;5069725;28;20231;-70
2024/01/28 04:40:32;;;;;;;40.83;13.27;;;26.70;36.60;;;;;;5069598;28;20202;-74
2024/01/28 04:43:01;;;;;;;39.80;12.70;;;26.70;36.60;;;;;;5069429;28;20319;-71
2024/01/28 04:45:28;;;;;;;47.20;12.83;;;26.70;36.60;;;;;;5075306;28;20537;-71
2024/01/28 04:47:55;;;;;;;43.07;12.73;;;26.70;36.60;;;;;;5071167;28;20228;-73
2024/01/28 04:50:24;;;;;;;42.90;15.27;;;26.70;36.60;;;;;;5081790;28;20203;-71
2024/01/28 04:52:51;;;;;;;51.27;12.57;;;26.70;36.60;;;;;;5083510;28;20297;-71
2024/01/28 04:55:18;;;;;;;60.00;13.33;;;26.70;36.60;;;;;;5089142;28;20318;-71
2024/01/28 04:57:45;;;;;;;46.73;12.50;;;26.70;37.30;;;;;;5073643;28;20270;-71
2024/01/28 05:00:15;;;;;;;43.60;13.07;;;26.80;36.70;;;;;;5081586;28;20322;-71
2024/01/28 05:02:42;;;;;;;49.20;13.47;;;26.80;36.60;;;;;;5078194;28;20865;-76
2024/01/28 05:05:09;;;;;;;48.13;12.63;;;26.80;36.60;;;;;;5084440;28;20201;-71
2024/01/28 05:07:36;;;;;;;62.00;13.43;;;26.80;36.60;;;;;;5080239;28;20301;-70
2024/01/28 05:10:04;;;;;;;54.83;13.57;;;26.70;36.60;;;;;;5084154;28;20200;-71
2024/01/28 05:12:31;;;;;;;65.93;15.37;;;26.80;36.60;;;;;;5076554;28;20230;-74
2024/01/28 05:14:58;;;;;;;68.70;13.77;;;26.80;36.60;;;;;;5073731;28;20203;-70
2024/01/28 05:17:26;;;;;;;71.77;14.87;;;26.80;36.60;;;;;;5085903;28;20283;-71
2024/01/28 05:19:53;;;;;;;46.33;13.20;;;26.80;36.60;;;;;;5075444;28;20817;-71
2024/01/28 05:22:22;;;;;;;52.57;14.17;;;26.80;36.60;;;;;;5088654;28;20210;-71
2024/01/28 05:24:50;;;;;;;45.40;12.10;;;26.80;36.60;;;;;;5086204;28;20230;-71
2024/01/28 05:27:17;;;;;;;51.00;12.33;;;26.80;36.60;;;;;;5079868;28;20223;-71
2024/01/28 05:29:43;;;;;;;60.60;13.03;;;26.90;36.60;;;;;;5069183;28;20297;-71
2024/01/28 05:32:10;;;;;;;48.93;14.03;;;26.80;37.20;;;;;;5088245;28;20317;-75
2024/01/28 05:34:39;;;;;;;51.37;13.10;;;26.80;36.60;;;;;;5083080;28;20214;-71
2024/01/28 05:37:06;;;;;;;54.00;12.90;;;26.80;36.50;;;;;;5071455;28;20200;-71
2024/01/28 05:39:33;;;;;;;51.23;14.40;;;26.90;36.60;;;;;;5075390;28;20195;-70
2024/01/28 05:42:00;;;;;;;46.87;13.97;;;26.80;36.50;;;;;;5075515;28;20281;-73
2024/01/28 05:44:27;;;;;;;45.70;13.23;;;26.80;36.50;;;;;;5083936;28;20296;-70
2024/01/28 05:46:54;;;;;;;57.67;14.07;;;26.90;36.60;;;;;;5079052;28;20209;-71
2024/01/28 05:49:20;;;;;;;55.00;12.80;;;26.90;36.60;;;;;;5070022;28;20298;-70
2024/01/28 05:51:49;;;;;;;50.83;13.60;;;26.90;36.60;;;;;;5070287;28;20236;-71
2024/01/28 05:54:16;;;;;;;46.73;13.03;;;26.80;36.50;;;;;;5084347;28;20282;-70
2024/01/28 05:56:43;;;;;;;49.60;13.50;;;26.90;36.50;;;;;;5085226;28;20195;-75
2024/01/28 05:59:09;;;;;;;42.57;13.20;;;26.90;36.60;;;;;;5088127;28;20658;-71
2024/01/28 06:01:36;;;;;;;50.90;13.07;;;26.90;36.60;;;;;;5087967;28;20213;-71
2024/01/28 06:04:03;;;;;;;41.03;12.57;;;26.90;36.50;;;;;;5088265;28;20286;-76
2024/01/28 06:06:30;;;;;;;50.73;13.20;;;26.80;36.40;;;;;;5088264;28;20202;-70
2024/01/28 06:08:59;;;;;;;41.27;12.53;;;26.80;36.50;;;;;;5088330;28;20222;-70
2024/01/28 06:11:26;;;;;;;43.80;12.37;;;26.90;36.50;;;;;;5087447;28;20737;-71
2024/01/28 06:13:53;;;;;;;45.17;12.43;;;26.90;36.50;;;;;;5088465;28;20191;-71
2024/01/28 06:16:20;;;;;;;41.43;12.57;;;26.90;36.40;;;;;;5081265;28;20226;-78
2024/01/28 06:18:47;;;;;;;54.00;13.73;;;26.90;36.50;;;;;;5072651;28;20192;-70
2024/01/28 06:21:14;;;;;;;53.43;12.40;;;26.90;36.50;;;;;;5082332;28;20203;-70
2024/01/28 06:23:41;;;;;;;52.83;13.07;;;26.90;36.50;;;;;;5067764;28;20202;-71
2024/01/28 06:26:10;;;;;;;45.93;12.83;;;26.90;37.10;;;;;;5067562;28;20929;-70
2024/01/28 06:28:37;;;;;;;58.77;13.80;;;26.90;36.40;;;;;;5068015;28;20770;-70
2024/01/28 06:31:04;;;;;;;54.37;12.87;;;26.90;36.40;;;;;;5067042;28;20206;-70
2024/01/28 06:33:31;;;;;;;40.53;12.50;;;26.90;36.40;;;;;;5070163;28;20318;-71
2024/01/28 06:35:58;;;;;;;48.90;12.00;;;26.90;36.40;;;;;;5086936;28;20279;-70
2024/01/28 06:38:25;;;;;;;48.17;12.43;;;26.90;36.40;;;;;;5067278;28;20207;-70
2024/01/28 06:40:52;;;;;;;50.40;12.80;;;26.90;36.40;;;;;;5068280;28;20284;-70
2024/01/28 06:43:20;;;;;;;41.80;11.97;;;26.90;36.40;;;;;;5067411;28;20503;-69
2024/01/28 06:45:47;;;;;;;50.63;12.87;;;26.90;36.40;;;;;;5075234;28;20673;-69
2024/01/28 06:48:14;;;;;;;46.57;12.73;;;26.90;36.40;;;;;;5087193;28;20253;-70
2024/01/28 06:50:41;;;;;;;47.70;12.90;;;26.90;36.40;;;;;;5069356;28;20195;-70
2024/01/28 06:53:09;;;;;;;63.17;13.30;;;26.90;36.40;;;;;;5066671;28;20794;-77
2024/01/28 06:55:36;;;;;;;45.73;12.37;;;26.90;36.40;;;;;;5069076;28;20257;-70
2024/01/28 06:58:03;;;;;;;54.10;14.87;;;26.90;36.40;;;;;;5082676;28;20283;-71
2024/01/28 07:00:31;;;;;;;55.50;13.30;;;26.90;36.40;;;;;;5082033;28;20301;-73
2024/01/28 07:02:58;;;;;;;61.15;13.20;;;26.90;36.40;;;;;;5079025;28;20470;-69
2024/01/28 07:05:26;;;;;;;39.67;13.67;;;26.80;36.60;;;;;;5067677;28;20249;-69
2024/01/28 07:07:52;;;;;;;43.13;14.10;;;26.80;36.70;;;;;;5066685;28;20214;-70
2024/01/28 07:10:19;;;;;;;54.13;16.57;;;26.90;36.60;;;;;;5067050;28;20298;-70
2024/01/28 07:12:46;;;;;;;50.07;16.17;;;26.90;36.50;;;;;;5066076;28;20231;-70
2024/01/28 07:15:13;;;;;;;48.73;15.10;;;27.00;36.50;;;;;;5066494;28;20208;-70
2024/01/28 07:17:41;;;;;;;48.53;18.00;;;27.00;36.40;;;;;;5067229;28;20211;-71
2024/01/28 07:20:09;;;;;;;49.00;16.73;;;27.00;36.40;;;;;;5066455;28;20200;-70
2024/01/28 07:22:36;;;;;;;42.03;16.33;;;27.00;36.30;;;;;;5079189;28;20221;-70
2024/01/28 07:25:04;;;;;;;60.30;18.53;;;27.00;36.30;;;;;;5079250;28;20206;-71
2024/01/28 07:27:30;;;;;;;54.00;18.13;;;27.00;36.30;;;;;;5085254;28;20628;-73
2024/01/28 07:29:57;;;;;;;52.50;18.73;;;27.10;36.40;;;;;;5075509;28;20318;-70
2024/01/28 07:32:24;;;;;;;59.60;19.53;;;27.00;36.30;;;;;;5071522;28;20222;-78
2024/01/28 07:34:52;;;;;;;48.10;17.70;;;27.00;36.30;;;;;;5085742;28;20318;-75
2024/01/28 07:37:19;;;;;;;40.43;23.60;;;27.00;36.30;;;;;;5084589;28;20438;-71
2024/01/28 07:39:46;;;;;;;52.13;17.53;;;27.00;36.30;;;;;;5082557;28;20309;-70
2024/01/28 07:42:13;;;;;;;49.73;17.40;;;27.10;36.30;;;;;;5087156;28;20282;-70
2024/01/28 07:44:40;;;;;;;49.77;17.90;;;27.00;36.30;;;;;;5087197;28;20262;-70
2024/01/28 07:47:07;;;;;;;75.87;19.17;;;27.10;37.00;;;;;;5082138;28;20196;-70
2024/01/28 07:49:34;;;;;;;48.13;18.23;;;27.00;36.30;;;;;;5067384;28;20231;-70
2024/01/28 07:52:02;;;;;;;54.63;17.73;;;27.00;36.30;;;;;;5066847;28;20235;-71
2024/01/28 07:54:29;;;;;;;48.70;17.93;;;27.10;36.30;;;;;;5067097;28;20686;-70
2024/01/28 07:56:57;;;;;;;47.13;17.53;;;27.10;36.30;;;;;;5066605;28;20245;-70
2024/01/28 07:59:24;;;;;;;48.13;16.40;;;27.10;36.30;;;;;;5066504;28;20219;-70
2024/01/28 08:01:51;;;;;;;47.70;19.07;;;27.10;36.30;;;;;;5066449;28;20196;-70
2024/01/28 08:04:18;;;;;;;51.03;17.20;;;27.10;36.30;;;;;;5069197;28;20256;-70
2024/01/28 08:06:45;;;;;;;62.40;17.83;;;27.10;36.30;;;;;;5070007;28;20207;-70
2024/01/28 08:09:13;;;;;;;50.63;17.80;;;27.10;36.20;;;;;;5070621;28;20255;-73
2024/01/28 08:11:40;;;;;;;43.60;17.30;;;27.10;36.20;;;;;;5069685;28;20291;-70
2024/01/28 08:14:07;;;;;;;61.20;19.27;;;27.10;36.20;;;;;;5069929;28;20294;-70
2024/01/28 08:16:34;;;;;;;41.97;15.83;;;27.10;36.20;;;;;;5070311;28;20245;-72
2024/01/28 08:19:04;;;;;;;45.33;17.50;;;27.10;36.20;;;;;;5069830;28;20287;-70
2024/01/28 08:21:31;;;;;;;57.27;18.30;;;27.10;36.20;;;;;;5070531;28;20203;-70
2024/01/28 08:23:58;;;;;;;52.60;17.43;;;27.10;36.20;;;;;;5070147;28;20231;-70
2024/01/28 08:26:26;;;;;;;67.00;20.17;;;27.10;36.20;;;;;;5069858;28;20837;-70
2024/01/28 08:28:54;;;;;;;50.10;18.17;;;27.10;36.10;;;;;;5070189;28;20227;-70
2024/01/28 08:31:21;;;;;;;51.20;18.57;;;27.10;36.80;;;;;;5069924;28;20215;-70
2024/01/28 08:33:48;;;;;;;53.30;19.57;;;27.10;36.10;;;;;;5069782;28;20243;-70
2024/01/28 08:36:15;;;;;;;51.53;17.20;;;27.10;36.10;;;;;;5069995;28;20294;-70
2024/01/28 08:38:42;;;;;;;66.27;18.43;;;27.10;36.10;;;;;;5069768;28;20279;-73
2024/01/28 08:41:09;;;;;;;63.87;19.37;;;27.10;36.10;;;;;;5086922;28;20276;-70
2024/01/28 08:43:37;;;;;;;43.67;18.57;;;27.20;36.10;;;;;;5089227;28;20199;-70
2024/01/28 08:46:05;;;;;;;54.60;18.33;;;27.10;36.80;;;;;;5083743;28;20753;-70
2024/01/28 08:48:32;;;;;;;61.70;19.23;;;27.10;36.10;;;;;;5068911;28;20609;-72
2024/01/28 08:50:59;;;;;;;76.30;19.73;;;27.20;36.10;;;;;;5068987;28;20225;-71
2024/01/28 08:53:26;;;;;;;52.57;18.73;;;27.20;36.10;;;;;;5073932;28;20199;-70
2024/01/28 08:55:53;;;;;;;48.83;18.00;;;27.20;36.10;;;;;;5069128;28;20239;-70
2024/01/28 08:58:20;;;;;;;50.77;17.27;;;27.10;36.10;;;;;;5068739;28;20215;-72
2024/01/28 09:00:48;;;;;;;55.57;17.37;;;27.20;36.10;;;;;;5069047;28;20254;-70
2024/01/28 09:03:15;;;;;;;52.53;17.53;;;27.20;36.10;;;;;;5069052;28;20203;-72
2024/01/28 09:05:42;;;;;;;42.77;17.17;;;27.20;36.10;;;;;;5069392;28;20190;-76
2024/01/28 09:08:09;;;;;;;73.37;20.20;;;27.20;36.10;;;;;;5068921;28;20214;-74
2024/01/28 09:10:36;;;;;;;48.80;18.17;;;27.20;36.10;;;;;;5071207;28;20314;-72
2024/01/28 09:13:03;;;;;;;48.40;17.77;;;27.20;36.10;;;;;;5068706;28;20250;-69
2024/01/28 09:15:30;;;;;;;66.57;18.43;;;27.20;36.10;;;;;;5068247;28;20195;-70
2024/01/28 09:17:59;;;;;;;50.23;18.23;;;27.30;36.20;;;;;;5069080;28;20206;-72
2024/01/28 09:20:26;;;;;;;55.43;18.90;;;27.30;36.10;;;;;;5068668;28;20690;-69
2024/01/28 09:22:53;;;;;;;47.17;17.97;;;27.30;36.10;;;;;;5068525;28;20290;-69
2024/01/28 09:25:20;;;;;;;48.83;17.80;;;27.30;36.10;;;;;;5068813;28;20282;-69
2024/01/28 09:27:48;;;;;;;65.80;18.57;;;27.30;36.10;;;;;;5068182;28;20203;-70
2024/01/28 09:30:15;;;;;;;48.10;17.27;;;27.30;36.10;;;;;;5068326;28;20266;-71
2024/01/28 09:32:42;;;;;;;56.37;17.23;;;27.30;36.10;;;;;;5068396;28;20663;-71
2024/01/28 09:35:11;;;;;;;48.63;16.73;;;27.40;36.20;;;;;;5068494;28;20294;-75
2024/01/28 09:37:37;;;;;;;68.93;17.93;;;27.40;36.10;;;;;;5068240;28;20198;-75
2024/01/28 09:40:05;;;;;;;54.83;16.73;;;27.40;36.10;;;;;;5077382;28;20286;-70
2024/01/28 09:42:38;;;;;;;53.90;15.93;;;27.40;36.10;;;;;;5088211;28;20726;-70
2024/01/28 09:45:07;;;;;;;58.13;17.77;;;27.50;36.10;;;;;;5079439;28;20286;-70
2024/01/28 09:47:35;;;;;;;55.43;16.57;;;27.50;36.20;;;;;;5067928;28;20867;-70
2024/01/28 09:50:04;;;;;;;43.20;17.13;;;27.50;36.10;;;;;;5068123;28;20235;-70
2024/01/28 09:52:33;;;;;;;49.90;16.93;;;27.50;36.10;;;;;;5082465;28;20199;-71
2024/01/28 09:55:00;;;;;;;46.43;16.20;;;27.60;36.20;;;;;;5088447;28;20206;-70
2024/01/28 09:57:27;;;;;;;62.90;18.40;;;27.60;36.20;;;;;;5088298;28;20297;-70
2024/01/28 09:59:56;;;;;;;49.13;16.60;;;27.60;36.20;;;;;;5088605;28;20290;-72
2024/01/28 10:02:24;;;;;;;46.20;16.37;;;27.60;36.20;;;;;;5088826;28;20307;-70
2024/01/28 10:04:51;;;;;;;42.73;16.17;;;27.70;36.30;;;;;;5088160;28;20290;-73
2024/01/28 10:07:18;;;;;;;53.80;17.17;;;27.70;36.20;;;;;;5087832;28;20313;-71
2024/01/28 10:09:46;;;;;;;52.33;18.17;;;27.80;36.30;;;;;;5087307;28;20265;-75
2024/01/28 10:12:13;;;;;;;38.50;15.87;;;27.80;36.80;;;;;;5088409;28;20305;-70
2024/01/28 10:14:40;;;;;;;41.83;16.83;;;27.90;36.20;;;;;;5088528;28;20199;-71
2024/01/28 10:17:07;;;;;;;53.03;17.70;;;27.90;36.20;;;;;;5088611;28;20198;-72
2024/01/28 10:19:34;;;;;;;44.20;16.63;;;28.00;36.10;;;;;;5088255;28;20293;-81
2024/01/28 10:22:01;;;;;;;62.43;18.47;;;28.10;36.20;;;;;;5088034;28;20203;-75
2024/01/28 10:24:28;;;;;;;47.47;16.50;;;28.20;36.20;;;;;;5088380;28;20306;-75
2024/01/28 10:26:58;;;;;;;58.40;18.50;;;28.30;36.20;;;;;;5087588;28;20335;-70
2024/01/28 10:29:27;;;;;;;49.83;18.47;;;28.30;36.10;;;;;;5087504;28;20710;-70
2024/01/28 10:31:54;;;;;;;52.27;17.63;;;28.40;36.20;;;;;;5087675;28;20211;-76
2024/01/28 10:34:21;;;;;;;48.00;17.20;;;28.50;36.80;;;;;;5088009;28;20634;-81
2024/01/28 10:36:49;;;;;;;65.73;17.53;;;28.60;36.20;;;;;;5083307;28;20210;-81
2024/01/28 10:39:18;;;;;;;75.03;19.17;;;28.70;36.10;;;;;;5067454;28;20261;-82
2024/01/28 10:41:49;;;;;;;52.10;17.70;;;28.80;36.10;;;;;;5067839;28;20302;-80
2024/01/28 10:44:19;;;;;;;51.60;16.23;;;28.90;36.10;;;;;;5067660;28;20329;-82
2024/01/28 10:46:48;;;;;;;49.57;17.23;;;29.00;36.10;;;;;;5067738;28;20207;-84
2024/01/28 10:49:21;;;;;;;52.77;17.30;;;29.10;36.10;;;;;;5068428;28;20235;-70
2024/01/28 10:51:51;;;;;;;54.40;18.25;;;29.20;36.00;;;;;;5067479;28;20287;-70
2024/01/28 10:54:18;;;;;;;52.77;16.20;;;29.30;36.00;;;;;;5067741;28;20200;-70
2024/01/28 10:56:46;;;;;;;46.70;17.98;;;29.40;36.00;;;;;;5066971;28;20635;-73
2024/01/28 10:59:14;;;;;;;53.03;18.83;;;29.50;36.60;;;;;;5067540;28;20199;-70
2024/01/28 11:01:44;;;;;;;62.53;17.97;;;29.50;36.00;;;;;;5067764;28;20294;-73
2024/01/28 11:04:11;;;;;;;66.78;17.77;;;29.60;35.90;;;;;;5067570;28;20196;-79
2024/01/28 11:06:38;;;;;;;48.63;17.23;;;29.80;35.90;;;;;;5067570;28;20226;-70
2024/01/28 11:09:05;;;;;;;51.27;17.00;;;29.80;35.70;;;;;;5067365;28;20314;-70
2024/01/28 11:11:32;;;;;;;65.43;17.83;;;29.90;35.60;;;;;;5084204;28;20231;-70
2024/01/28 11:13:59;;;;;;;61.13;17.47;;;30.00;35.60;;;;;;5087512;28;20281;-70
2024/01/28 11:16:30;;;;;;;46.17;15.48;;;30.00;35.50;;;;;;5087989;28;20191;-70
2024/01/28 11:19:04;;;;;;;39.08;15.60;;;30.10;35.40;;;;;;5087254;28;20306;-69
2024/01/28 11:21:33;;;;;;;56.30;16.45;;;30.20;35.30;;;;;;5087726;28;20726;-70
2024/01/28 11:24:00;;;;;;;53.70;16.77;;;30.20;35.20;;;;;;5087783;28;20290;-69
2024/01/28 11:26:27;;;;;;;46.35;16.38;;;30.20;35.10;;;;;;5087373;28;20313;-73
2024/01/28 11:28:55;;;;;;;55.47;17.33;;;30.20;35.20;;;;;;5087007;28;20206;-69
2024/01/28 11:31:24;;;;;;;32.58;16.40;;;30.30;35.10;;;;;;5083575;28;20583;-70
2024/01/28 11:33:52;;;;;;;58.78;16.15;;;30.30;35.10;;;;;;5086692;28;20217;-69
2024/01/28 11:36:27;;;;;;;62.20;16.83;;;30.30;35.10;;;;;;5087019;28;20615;-69
2024/01/28 11:39:04;;;;;;;64.07;17.23;;;30.40;35.10;;;;;;5090810;28;20213;-70
2024/01/28 11:41:36;;;;;;;56.83;17.17;;;30.40;35.10;;;;;;5085462;28;20567;-70
2024/01/28 11:44:04;;;;;;;46.38;17.08;;;30.40;35.10;;;;;;5086669;28;20281;-70
2024/01/28 11:46:31;;;;;;;51.83;17.88;;;30.40;35.10;;;;;;5090795;28;20202;-74
2024/01/28 11:48:58;;;;;;;54.72;16.48;;;30.40;35.10;;;;;;5090220;28;20691;-69
2024/01/28 11:51:28;;;;;;;48.85;16.33;;;30.40;35.10;;;;;;5090706;28;20213;-70
2024/01/28 11:53:55;;;;;;;45.30;15.02;;;30.40;35.10;;;;;;5090683;28;20210;-69
2024/01/28 11:56:22;;;;;;;38.47;15.57;;;30.50;35.20;;;;;;5090632;28;20947;-70
2024/01/28 11:58:51;;;;;;;56.40;17.17;;;30.40;35.00;;;;;;5090729;28;20205;-72
2024/01/28 12:01:18;;;;;;;46.78;15.13;;;30.40;34.90;;;;;;5090578;28;20214;-70
2024/01/28 12:03:45;;;;;;;51.13;16.58;;;30.40;34.90;;;;;;5090621;28;20187;-70
2024/01/28 12:06:12;;;;;;;56.47;17.45;;;30.40;34.90;;;;;;5090236;28;20286;-72
2024/01/28 12:08:43;;;;;;;47.58;16.33;;;30.40;34.90;;;;;;5090795;28;20191;-72
2024/01/28 12:11:13;;;;;;;53.05;16.73;;;30.40;34.80;;;;;;5089368;28;20240;-71
2024/01/28 12:13:40;;;;;;;44.58;16.13;;;30.40;34.80;;;;;;5090621;28;20183;-70
2024/01/28 12:16:08;;;;;;;56.38;18.25;;;30.40;34.80;;;;;;5090179;28;20205;-70
2024/01/28 12:18:37;;;;;;;49.35;15.98;;;30.40;34.80;;;;;;5089740;28;20693;-71
2024/01/28 12:21:05;;;;;;;60.78;17.80;;;30.40;34.70;;;;;;5090216;28;20654;-70
2024/01/28 12:23:33;;;;;;;36.40;15.88;;;30.40;34.70;;;;;;5090496;28;20297;-75
2024/01/28 12:26:02;;;;;;;57.00;17.52;;;30.40;34.70;;;;;;5086103;28;20195;-70